createdAt,value
2022-11-22T00:04:01.215Z,11.57
2022-11-22T00:09:03.001Z,10.90
2022-11-22T00:14:04.891Z,11.50
2022-11-22T00:19:06.826Z,11.27
2022-11-22T00:24:13.052Z,12.30
2022-11-22T00:29:14.799Z,10.63
2022-11-22T00:34:16.504Z,9.60
2022-11-22T00:39:18.285Z,10.27
2022-11-22T00:44:20.207Z,9.20
2022-11-22T00:49:33.713Z,8.73
2022-11-22T00:54:42.905Z,8.87
2022-11-22T00:59:44.958Z,9.47
2022-11-22T01:04:55.036Z,8.67
2022-11-22T01:09:56.950Z,9.47
2022-11-22T01:15:02.154Z,8.63
2022-11-22T01:20:04.375Z,8.90
2022-11-22T01:25:06.638Z,8.40
2022-11-22T01:30:08.691Z,8.77
2022-11-22T01:35:10.857Z,8.43
2022-11-22T01:40:13.040Z,8.47
2022-11-22T01:45:52.240Z,7.20
2022-11-22T01:51:19.101Z,7.43
2022-11-22T01:56:44.944Z,6.67
2022-11-22T02:01:47.665Z,6.33
2022-11-22T02:07:17.359Z,7.60
2022-11-22T02:12:20.947Z,6.00
2022-11-22T02:17:26.112Z,6.80
2022-11-22T02:22:36.611Z,5.90
2022-11-22T02:27:40.838Z,5.90
2022-11-22T02:33:00.903Z,6.13
2022-11-22T02:38:05.987Z,5.93
2022-11-22T02:43:46.854Z,5.70
2022-11-22T02:48:54.030Z,5.83
2022-11-22T02:53:59.219Z,5.67
2022-11-22T02:59:01.017Z,4.90
2022-11-22T03:04:02.789Z,4.40
2022-11-22T03:09:04.507Z,4.77
2022-11-22T03:14:06.209Z,4.43
2022-11-22T03:19:08.418Z,3.80
2022-11-22T03:24:11.189Z,4.27
2022-11-22T03:29:12.899Z,4.83
2022-11-22T03:34:15.304Z,4.33
2022-11-22T03:39:17.267Z,3.43
2022-11-22T03:44:19.252Z,3.73
2022-11-22T03:49:45.100Z,4.13
2022-11-22T03:54:50.165Z,3.87
2022-11-22T03:59:51.914Z,3.87
2022-11-22T04:04:53.748Z,3.83
2022-11-22T04:09:55.501Z,4.27
2022-11-22T04:15:07.301Z,4.20
2022-11-22T04:20:43.579Z,4.40
2022-11-22T04:25:47.670Z,4.03
2022-11-22T04:31:08.056Z,4.30
2022-11-22T04:36:13.283Z,3.93
2022-11-22T04:41:15.272Z,4.33
2022-11-22T04:46:19.612Z,3.90
2022-11-22T04:51:44.192Z,3.67
2022-11-22T04:56:46.230Z,3.77
2022-11-22T05:01:48.187Z,4.97
2022-11-22T05:07:03.672Z,4.53
2022-11-22T05:12:09.221Z,4.63
2022-11-22T05:17:14.985Z,4.80
2022-11-22T05:28:06.760Z,4.80
2022-11-22T05:33:08.491Z,4.20
2022-11-22T05:38:10.240Z,5.50
2022-11-22T05:43:12.244Z,5.40
2022-11-22T05:48:14.496Z,4.73
2022-11-22T05:53:16.369Z,5.17
2022-11-22T05:58:47.935Z,5.70
2022-11-22T06:03:50.394Z,5.03
2022-11-22T06:08:52.410Z,5.07
2022-11-22T06:13:56.961Z,5.30
2022-11-22T06:18:58.663Z,5.57
2022-11-22T06:24:52.332Z,5.93
2022-11-22T06:29:54.161Z,7.33
2022-11-22T06:34:56.059Z,7.70
2022-11-22T06:39:58.103Z,8.03
2022-11-22T06:45:06.562Z,7.73
2022-11-22T06:50:08.762Z,12.40
2022-11-22T06:55:34.688Z,15.53
2022-11-22T07:00:32.318Z,10.30
2022-11-22T07:05:34.051Z,12.33
2022-11-22T08:15:12.809Z,5.53
2022-11-22T08:58:51.963Z,3.60
2022-11-22T09:03:53.904Z,2.87
2022-11-22T09:09:15.089Z,2.93
2022-11-22T11:08:47.613Z,1.87
2022-11-22T11:14:00.931Z,1.70
2022-11-22T11:19:16.474Z,2.00
2022-11-22T11:24:19.641Z,1.20
2022-11-22T11:29:24.283Z,1.53
2022-11-22T11:34:47.973Z,1.70
2022-11-22T11:39:49.825Z,1.53
2022-11-22T11:44:51.769Z,2.00
2022-11-22T11:49:53.741Z,1.33
2022-11-22T11:55:00.897Z,1.47
2022-11-22T12:00:27.529Z,1.97
2022-11-22T12:05:31.810Z,1.47
2022-11-22T12:11:02.243Z,1.57
2022-11-22T12:22:04.134Z,1.83
2022-11-22T12:27:08.060Z,1.43
2022-11-22T12:32:27.485Z,1.20
2022-11-22T12:43:01.648Z,1.90
2022-11-22T12:53:42.868Z,2.00
2022-11-22T13:09:36.539Z,1.50
2022-11-22T13:14:55.428Z,1.17
2022-11-22T13:20:05.184Z,1.27
2022-11-22T13:47:22.963Z,1.47
2022-11-22T13:52:31.147Z,1.50
2022-11-22T14:29:55.187Z,1.90
2022-11-22T14:40:33.906Z,1.43
2022-11-22T14:56:36.432Z,1.70
2022-11-22T16:00:47.274Z,1.00
2022-11-22T16:06:06.517Z,0.70
2022-11-22T16:11:23.825Z,1.10
2022-11-22T16:16:34.936Z,1.23
2022-11-22T16:21:44.226Z,1.23
2022-11-22T16:32:21.293Z,7.37
2022-11-22T16:37:40.523Z,9.43
2022-11-22T16:42:56.367Z,2.67
2022-11-22T16:53:13.403Z,2.03
2022-11-22T16:58:19.669Z,2.40
2022-11-22T17:03:29.594Z,3.40
2022-11-22T17:08:31.364Z,2.40
2022-11-22T17:13:33.164Z,2.47
2022-11-22T17:18:37.707Z,2.40
2022-11-22T17:23:39.721Z,2.87
2022-11-22T17:28:55.130Z,2.73
2022-11-22T17:34:05.691Z,3.10
2022-11-22T17:39:16.951Z,2.87
2022-11-22T17:44:21.330Z,3.30
2022-11-22T17:49:23.309Z,3.30
2022-11-22T17:54:25.083Z,3.33
2022-11-22T17:59:27.066Z,3.60
2022-11-22T18:04:31.711Z,4.00
2022-11-22T18:09:34.926Z,3.20
2022-11-22T18:14:37.609Z,3.37
2022-11-22T18:20:18.311Z,15.67
2022-11-22T18:36:49.532Z,3.13
2022-11-22T18:41:30.395Z,4.23
2022-11-22T18:46:32.412Z,3.10
2022-11-22T18:51:34.615Z,2.97
2022-11-22T18:56:40.707Z,2.40
2022-11-22T19:17:54.720Z,2.97
2022-11-22T19:23:19.486Z,3.10
2022-11-22T19:28:26.827Z,2.13
2022-11-22T19:33:30.353Z,1.97
2022-11-22T19:38:32.427Z,2.10
2022-11-22T19:43:35.160Z,1.60
2022-11-22T19:48:39.056Z,1.50
2022-11-22T19:54:08.754Z,1.57
2022-11-22T19:59:15.665Z,1.50
2022-11-22T20:04:18.236Z,1.30
2022-11-22T20:09:38.181Z,1.13
2022-11-22T20:14:39.954Z,2.17
2022-11-22T20:30:16.109Z,3.67
2022-11-22T20:35:21.260Z,2.30
2022-11-22T20:40:25.990Z,2.07
2022-11-22T20:45:27.772Z,1.40
2022-11-22T20:50:29.515Z,1.60
2022-11-22T21:01:17.179Z,1.20
2022-11-22T21:12:15.539Z,2.30
2022-11-22T21:17:39.663Z,1.67
2022-11-22T21:22:41.927Z,1.23
2022-11-22T21:55:17.309Z,2.20
2022-11-22T22:00:21.870Z,1.07
2022-11-22T22:12:03.515Z,1.43
2022-11-22T22:17:07.768Z,1.10
2022-11-22T22:22:21.279Z,1.50
2022-11-22T22:27:25.626Z,1.27
2022-11-22T22:34:39.773Z,1.57
2022-11-22T22:45:24.735Z,1.10
2022-11-22T22:50:26.773Z,1.43
2022-11-22T22:55:28.707Z,1.53
2022-11-22T23:00:30.798Z,1.97
2022-11-22T23:12:10.736Z,1.27
2022-11-22T23:17:14.915Z,1.43
2022-11-22T23:22:16.635Z,1.40
2022-11-22T23:27:18.559Z,1.60
2022-11-22T23:32:30.604Z,1.43
2022-11-22T23:37:32.303Z,1.53
2022-11-22T23:42:34.737Z,1.27
2022-11-22T23:47:36.414Z,1.40
2022-11-22T23:52:47.348Z,1.50
